Latest Weather Observations for Southern Cross Airport

IDW60801

Issued at 2:03 pm WST Saturday 10 December 2022 (issued every 10 minutes, with the page automatically refreshed every 10 minutes)

About weather observations | Map of weather stations | Latest weather observations for WA | Other Formats
Station Details ID: 012320 Name: SOUTHERN CROSS AIRFIELD Lat: -31.24 Lon: 119.36 Height: 347.4 m
Data from the previous 72 hours. | See also: Recent months at Southern Cross Airport
Date/Time
WST
Temp
°C
App
Temp
°C
Dew
Point
°C
Rel
Hum
%
Delta-T
°C
Wind Press
QNH
hPa
Press
MSL
hPa
Rain since
9am
mm
Dir  Spd
km/h
Gust
km/h
Spd
kts
Gust
kts
10/02:00pm 28.0 24.8 5.0 23 12.0 SSE 11 19 6 10 1014.5 1012.7 0.0
10/01:30pm 27.3 23.7 5.0 24 11.6 SE 13 19 7 10 1014.8 1012.9 0.0
10/01:00pm 27.3 24.6 5.6 25 11.4 SSE 9 19 5 10 1015.1 1013.3 0.0
10/12:30pm 26.7 23.2 5.6 26 11.1 SSW 13 30 7 16 1015.3 1013.5 0.0
10/12:00pm 26.4 22.6 5.9 27 10.8 SE 15 24 8 13 1015.8 1014.0 0.0
10/11:30am 24.9 21.8 7.1 32 9.5 SSE 13 30 7 16 1016.2 1014.4 0.0
10/11:00am 24.2 21.1 7.4 34 8.9 SE 13 24 7 13 1016.6 1014.8 0.0
10/10:30am 24.0 20.6 7.6 35 8.8 ESE 15 26 8 14 1016.8 1015.0 0.0
10/10:00am 22.2 18.4 7.6 39 7.7 SSE 17 26 9 14 1017.0 1015.2 0.0
10/09:30am 22.2 18.5 8.0 40 7.6 SE 17 28 9 15 1017.3 1015.5 0.0
10/09:00am 20.8 16.8 8.1 44 6.7 SE 19 30 10 16 1017.5 1015.8 0.0
10/08:30am 19.5 15.6 8.5 49 5.8 SE 19 26 10 14 1017.8 1016.0 0.0
10/08:00am 18.0 13.9 8.6 54 4.9 SE 20 28 11 15 1017.8 1016.0 0.0
10/07:30am 16.7 12.9 8.9 60 4.1 SE 19 26 10 14 1017.7 1015.9 0.0
10/07:00am 16.2 11.8 8.9 62 3.8 SE 22 30 12 16 1017.3 1015.5 0.0
10/06:30am 15.5 11.1 9.0 65 3.4 SE 22 33 12 18 1017.1 1015.3 0.0
10/06:00am 14.8 10.5 9.2 69 2.9 SSE 22 30 12 16 1016.7 1014.9 0.0
10/05:30am 14.2 10.4 9.2 72 2.6 SSE 19 26 10 14 1016.4 1014.6 0.0
10/05:00am 14.0 10.1 9.4 74 2.4 SE 20 26 11 14 1016.2 1014.4 0.0
10/04:30am 14.5 10.8 9.3 71 2.7 SE 19 26 10 14 1015.7 1013.9 0.0
10/04:00am 15.2 11.3 9.3 68 3.1 SSE 20 24 11 13 1015.2 1013.4 0.0
10/03:30am 15.7 11.8 9.4 66 3.3 SE 20 26 11 14 1014.8 1012.9 0.0
10/03:00am 16.2 12.4 9.8 66 3.4 SE 20 30 11 16 1014.4 1012.6 0.0
10/02:30am 16.7 13.1 9.9 64 3.6 SE 19 24 10 13 1014.1 1012.3 0.0
10/02:00am 16.9 14.1 10.1 64 3.7 SE 15 17 8 9 1013.8 1012.0 0.0
10/01:30am 17.4 14.2 10.1 62 3.9 SE 17 22 9 12 1013.5 1011.7 0.0
10/01:00am 18.0 13.6 10.4 61 4.1 SE 24 30 13 16 1013.4 1011.6 0.0
10/12:30am 18.5 14.5 10.6 60 4.3 SSE 22 32 12 17 1013.3 1011.5 0.0
10/12:00am 19.3 14.7 11.1 59 4.6 SE 26 35 14 19 1013.1 1011.3 0.0
 
Date/Time
WST
Temp
°C
App
Temp
°C
Dew
Point
°C
Rel
Hum
%
Delta-T
°C
Wind Press
QNH
hPa
Press
MSL
hPa
Rain since
9am
mm
Dir  Spd
km/h
Gust
km/h
Spd
kts
Gust
kts
09/11:30pm 20.3 16.9 11.2 56 5.1 SE 20 26 11 14 1012.9 1011.1 0.0
09/11:00pm 21.0 18.1 11.1 53 5.5 SE 17 20 9 11 1012.6 1010.8 0.0
09/10:30pm 21.7 18.7 10.5 49 6.2 SE 17 22 9 12 1012.5 1010.7 0.0
09/10:00pm 23.3 18.1 3.8 28 9.7 SSW 20 26 11 14 1012.6 1010.8 0.0
09/09:30pm 24.0 19.4 3.9 27 10.0 SSW 17 24 9 13 1012.3 1010.5 0.0
09/09:00pm 24.4 19.5 4.2 27 10.2 SW 19 26 10 14 1012.0 1010.1 0.0
09/08:30pm 23.8 19.4 2.6 25 10.3 WSW 15 19 8 10 1011.6 1009.7 0.0
09/08:00pm 24.5 20.4 2.0 23 10.9 WSW 13 19 7 10 1011.0 1009.2 0.0
09/07:30pm 25.2 21.2 0.7 20 11.6 WSW 11 13 6 7 1010.5 1008.7 0.0
09/07:00pm 27.1 22.1 1.5 19 12.5 WSW 17 22 9 12 1010.1 1008.3 0.0
09/06:30pm 28.4 23.3 1.0 17 13.4 W 17 28 9 15 1009.8 1008.0 0.0
09/06:00pm 29.3 23.7 0.0 15 14.2 W 19 28 10 15 1009.5 1007.6 0.0
09/05:30pm 29.9 23.7 -0.5 14 14.6 W 22 33 12 18 1009.2 1007.3 0.0
09/05:00pm 30.8 24.9 -0.8 13 15.2 W 20 32 11 17 1008.9 1007.0 0.0
09/04:30pm 30.6 24.3 -0.9 13 15.1 NW 22 39 12 21 1008.6 1006.7 0.0
09/04:00pm 31.3 24.4 -2.6 11 15.9 WNW 24 43 13 23 1008.6 1006.7 0.0
09/03:30pm 31.3 24.5 -1.5 12 15.7 WNW 24 37 13 20 1008.4 1006.6 0.0
09/03:00pm 31.5 24.8 -3.8 10 16.3 NW 22 35 12 19 1008.6 1006.7 0.0
09/02:30pm 31.7 25.5 -0.1 13 15.6 NW 22 41 12 22 1008.7 1006.8 0.0
09/02:00pm 30.8 25.5 2.1 16 14.5 WNW 19 33 10 18 1008.9 1007.0 0.0
09/01:30pm 31.1 25.0 0.5 14 15.1 WNW 22 39 12 21 1009.0 1007.1 0.0
09/01:00pm 30.8 26.1 3.0 17 14.3 W 17 30 9 16 1009.4 1007.5 0.0
09/12:30pm 30.1 25.1 4.7 20 13.4 WSW 20 32 11 17 1009.5 1007.6 0.0
09/12:00pm 30.0 25.7 5.3 21 13.1 WNW 17 32 9 17 1009.7 1007.8 0.0
09/11:30am 29.1 24.7 6.5 24 12.2 WNW 19 32 10 17 1010.1 1008.3 0.0
09/11:00am 28.4 24.5 7.1 26 11.6 W 17 33 9 18 1010.3 1008.5 0.0
09/10:30am 27.7 24.8 8.1 29 10.8 WNW 13 22 7 12 1010.5 1008.7 0.0
09/10:00am 25.3 23.8 10.7 40 8.3 WSW 9 19 5 10 1010.8 1009.0 0.0
09/09:30am 24.4 22.3 11.0 43 7.6 W 13 22 7 12 1010.9 1009.1 0.0
09/09:00am 23.2 21.1 11.3 47 6.8 W 13 20 7 11 1010.8 1009.0 0.0
09/08:30am 22.1 20.7 10.9 49 6.3 WSW 9 15 5 8 1010.9 1009.1 0.0
09/08:00am 21.0 19.3 11.3 54 5.5 SW 11 15 6 8 1010.9 1009.1 0.0
09/07:30am 19.6 17.9 11.1 58 4.7 SW 11 17 6 9 1010.8 1009.0 0.0
09/07:00am 19.1 17.2 11.7 62 4.2 SW 13 17 7 9 1010.7 1008.9 0.0
09/06:30am 17.6 14.8 11.2 66 3.5 SW 17 20 9 11 1010.7 1008.9 0.0
09/06:00am 16.9 14.3 10.7 67 3.4 WSW 15 20 8 11 1010.4 1008.6 0.0
09/05:30am 16.0 14.1 10.5 70 3.0 SW 11 15 6 8 1010.1 1008.3 0.0
09/05:00am 15.5 13.5 10.1 70 2.9 WSW 11 15 6 8 1010.1 1008.3 0.0
09/04:30am 15.9 13.9 10.0 68 3.1 WSW 11 15 6 8 1010.0 1008.2 0.0
09/04:00am 16.3 13.8 9.7 65 3.5 WSW 13 19 7 10 1009.8 1008.0 0.0
09/03:30am 16.8 13.5 9.7 63 3.8 SW 17 22 9 12 1009.5 1007.6 0.0
09/03:00am 17.2 13.5 9.6 61 4.1 SW 19 24 10 13 1009.2 1007.3 0.0
09/02:30am 17.9 14.0 9.5 58 4.5 SW 20 28 11 15 1009.1 1007.2 0.0
09/02:00am 18.5 14.3 9.6 56 4.8 SW 22 30 12 16 1009.0 1007.1 0.0
09/01:30am 19.2 15.4 9.7 54 5.1 WSW 20 30 11 16 1009.2 1007.3 0.0
09/01:00am 20.2 16.4 9.2 49 5.9 WSW 19 26 10 14 1009.0 1007.1 0.0
09/12:30am 21.2 16.8 9.1 46 6.5 SW 22 30 12 16 1009.1 1007.2 0.0
09/12:00am 21.9 17.5 9.1 44 7.0 SW 22 33 12 18 1009.3 1007.4 0.0
 
Date/Time
WST
Temp
°C
App
Temp
°C
Dew
Point
°C
Rel
Hum
%
Delta-T
°C
Wind Press
QNH
hPa
Press
MSL
hPa
Rain since
9am
mm
Dir  Spd
km/h
Gust
km/h
Spd
kts
Gust
kts
08/11:30pm 22.6 17.8 9.0 42 7.4 SW 24 32 13 17 1009.4 1007.5 0.0
08/11:00pm 23.1 19.1 9.1 41 7.7 SW 20 26 11 14 1009.4 1007.5 0.0
08/10:30pm 23.9 18.3 8.7 38 8.3 SW 28 39 15 21 1009.2 1007.3 0.0
08/10:00pm 24.4 20.3 8.0 35 8.9 WSW 19 26 10 14 1009.0 1007.1 0.0
08/09:30pm 23.7 21.2 4.6 29 9.6 SW 7 9 4 5 1008.3 1006.5 0.0
08/09:00pm 24.0 21.1 4.4 28 9.9 WSW 9 11 5 6 1008.1 1006.3 0.0
08/08:30pm 24.8 22.0 5.1 28 10.1 W 9 11 5 6 1007.6 1005.8 0.0
08/08:00pm 25.2 22.0 4.9 27 10.4 SW 11 13 6 7 1007.2 1005.4 0.0
08/07:30pm 27.1 23.5 4.8 24 11.5 WSW 13 15 7 8 1006.9 1005.0 0.0
08/07:00pm 28.9 24.4 4.4 21 12.8 WSW 17 24 9 13 1006.6 1004.7 0.0
08/06:30pm 30.4 25.3 4.2 19 13.7 W 20 32 11 17 1006.3 1004.4 0.0
08/06:00pm 31.2 25.3 4.1 18 14.3 WSW 24 28 13 15 1005.8 1003.9 0.0
08/05:30pm 32.0 26.0 3.1 16 15.0 WSW 24 35 13 19 1005.4 1003.6 0.0
08/05:00pm 32.5 26.8 5.1 18 14.8 W 24 35 13 19 1005.1 1003.3 0.0
08/04:30pm 32.6 26.4 4.4 17 15.0 WSW 26 44 14 24 1004.9 1003.1 0.0
08/04:00pm 33.0 27.2 6.3 19 14.7 W 26 44 14 24 1004.9 1003.1 0.0
08/03:30pm 33.3 27.2 6.6 19 14.7 W 28 39 15 21 1004.9 1003.1 0.0
08/03:06pm 33.4 27.5 7.4 20 14.5 WSW 28 54 15 29 1004.8 1003.0 0.0
08/03:00pm 33.3 28.1 7.3 20 14.6 W 24 54 13 29 1004.8 1003.0 0.0
08/02:30pm 33.5 29.2 9.5 23 13.9 WNW 22 33 12 18 1004.9 1003.1 0.0
08/02:00pm 32.0 26.6 9.5 25 13.0 W 28 41 15 22 1005.1 1003.3 0.0
08/01:44pm 32.0 26.5 10.7 27 12.5 WNW 30 48 16 26 1005.1 1003.3 0.0
08/01:30pm 32.0 26.9 10.7 27 12.5 W 28 48 15 26 1005.1 1003.3 0.0
08/01:25pm 31.6 26.4 10.3 27 12.4 W 28 46 15 25 1005.1 1003.3 0.0
08/01:00pm 31.4 25.6 10.7 28 12.1 WNW 32 46 17 25 1005.4 1003.6 0.0
08/12:30pm 30.6 25.4 11.5 30 11.3 WNW 30 44 16 24 1005.4 1003.6 0.0
08/12:00pm 29.9 24.4 11.9 33 10.7 WNW 32 43 17 23 1005.8 1003.9 0.0
08/11:45am 30.2 25.2 12.1 32 10.7 WNW 30 48 16 26 1005.9 1004.0 0.0
08/11:30am 29.9 25.1 12.8 35 10.3 WNW 30 43 16 23 1006.0 1004.1 0.0
08/11:00am 29.0 23.8 12.8 36 9.7 WNW 32 44 17 24 1006.1 1004.2 0.0
08/10:30am 28.0 23.6 12.8 39 9.0 NW 28 43 15 23 1006.1 1004.2 0.0
08/10:00am 28.0 23.5 11.5 35 9.6 WNW 26 37 14 20 1006.0 1004.1 0.0
08/09:30am 27.8 23.5 12.2 38 9.2 WNW 26 41 14 22 1006.0 1004.1 0.0
08/09:00am 27.7 22.9 10.4 34 9.9 WNW 26 37 14 20 1006.1 1004.2 0.0
08/08:30am 27.9 23.7 8.2 29 10.9 NNW 20 30 11 16 1005.8 1003.9 0.0
08/08:00am 26.8 22.6 8.3 31 10.2 NNE 20 28 11 15 1005.8 1003.9 0.0
08/07:30am 25.0 20.4 6.7 31 9.7 NE 20 32 11 17 1005.6 1003.7 0.0
08/07:00am 24.3 20.2 6.1 31 9.5 NE 17 26 9 14 1005.7 1003.8 0.0
08/06:30am 23.7 19.5 5.6 31 9.3 NE 17 24 9 13 1005.3 1003.5 0.0
08/06:00am 22.4 19.3 5.4 33 8.7 ENE 11 15 6 8 1005.4 1003.6 0.0
08/05:30am 22.0 18.4 5.0 33 8.6 ENE 13 19 7 10 1005.0 1003.2 0.0
08/05:00am 21.7 17.8 5.2 34 8.4 ENE 15 20 8 11 1005.1 1003.3 0.0
08/04:30am 21.9 17.9 4.9 33 8.5 ENE 15 20 8 11 1005.3 1003.5 0.0
08/04:00am 22.2 17.9 5.2 33 8.6 ENE 17 22 9 12 1005.1 1003.3 0.0
08/03:30am 22.5 17.7 5.4 33 8.7 NE 20 30 11 16 1004.7 1002.9 0.0
08/03:00am 22.8 15.7 6.6 35 8.5 NE 33 50 18 27 1004.6 1002.8 0.0
08/02:57am 22.7 15.3 6.9 36 8.3 NE 35 50 19 27 1004.6 1002.8 0.0
08/02:38am 23.5 17.0 6.3 33 9.0 NE 30 41 16 22 1004.5 1002.6 0.0
08/02:30am 23.5 16.5 5.9 32 9.1 NE 32 44 17 24 1004.4 1002.5 0.0
08/02:00am 23.9 17.1 5.3 30 9.6 NE 30 37 16 20 1004.9 1003.1 0.0
08/01:30am 24.1 18.0 5.0 29 9.7 NE 26 35 14 19 1005.7 1003.8 0.0
08/01:00am 23.9 19.4 6.2 32 9.2 NE 19 30 10 16 1005.9 1004.0 0.0
08/12:30am 24.3 18.0 5.6 30 9.7 NE 28 41 15 22 1006.6 1004.7 0.0
08/12:00am 25.4 19.1 4.0 25 10.8 NNE 26 39 14 21 1006.4 1004.5 0.0
 
Date/Time
WST
Temp
°C
App
Temp
°C
Dew
Point
°C
Rel
Hum
%
Delta-T
°C
Wind Press
QNH
hPa
Press
MSL
hPa
Rain since
9am
mm
Dir  Spd
km/h
Gust
km/h
Spd
kts
Gust
kts
07/11:30pm 25.4 18.7 3.4 24 11.0 NE 28 48 15 26 1006.3 1004.4 0.0
07/11:28pm 25.5 18.8 3.5 24 11.0 NE 28 48 15 26 1005.9 1004.0 0.0
07/11:00pm 25.5 18.7 2.9 23 11.2 NE 28 39 15 21 1007.2 1005.4 0.0
07/10:30pm 25.1 19.6 1.9 22 11.3 ENE 20 30 11 16 1007.5 1005.7 0.0
07/10:00pm 25.3 19.4 1.4 21 11.5 ENE 22 32 12 17 1007.6 1005.8 0.0
07/09:30pm 25.5 20.0 1.6 21 11.6 ENE 20 32 11 17 1008.0 1006.2 0.0
07/09:00pm 26.1 20.3 2.1 21 11.8 ENE 22 33 12 18 1008.0 1006.2 0.0
07/08:30pm 26.5 20.5 3.1 22 11.7 ENE 24 32 13 17 1008.1 1006.3 0.0
07/08:00pm 26.7 21.3 2.6 21 12.0 ENE 20 28 11 15 1008.0 1006.2 0.0
07/07:30pm 27.3 22.1 2.4 20 12.4 ENE 19 28 10 15 1008.2 1006.4 0.0
07/07:00pm 27.9 22.6 2.9 20 12.6 ENE 20 30 11 16 1008.2 1006.4 0.0
07/06:30pm 28.4 23.2 3.3 20 12.8 ENE 20 32 11 17 1007.9 1006.1 0.0
07/06:00pm 28.9 23.0 3.7 20 13.0 ENE 24 33 13 18 1007.6 1005.8 0.0
07/05:30pm 29.7 23.9 4.4 20 13.2 ENE 24 35 13 19 1007.5 1005.7 0.0
07/05:00pm 30.1 24.4 4.7 20 13.4 E 24 35 13 19 1007.7 1005.9 0.0
07/04:30pm 30.4 25.1 4.9 20 13.5 NE 22 32 12 17 1008.3 1006.5 0.0
07/04:00pm 30.5 24.3 4.3 19 13.8 ENE 26 37 14 20 1008.8 1006.9 0.0
07/03:30pm 30.5 24.7 4.3 19 13.7 NE 24 35 13 19 1009.1 1007.2 0.0
07/03:00pm 30.1 24.4 4.7 20 13.4 NE 24 35 13 19 1009.6 1007.7 0.0
07/02:30pm 29.1 23.0 4.6 21 12.8 ENE 26 39 14 21 1009.8 1008.0 0.0

Other formats

Comma delimited format used in spreadsheet applications
http://www.bom.gov.au/fwo/IDW60801/IDW60801.95634.axf

JavaScript Object Notation format (JSON) in row-major order
http://www.bom.gov.au/fwo/IDW60801/IDW60801.95634.json

Data quality

Most of these data are generated automatically and are frequently updated. Quality checks on data are not normally performed. It is possible for incorrect values to appear. Refer to information at About Latest Weather Observations and please check the disclaimer before using these data.